Time;durP1;ratioP1;P1;durP2;ratioP2;P2;SDS_P1;SDS_P2;PMS_P1;PMS_P2;Temp;Humidity;BMP_temperature;BMP_pressure;BME280_temperature;BME280_humidity;BME280_pressure;Samples;Min_cycle;Max_cycle;Signal;HPM_P1;HPM_P2
2021/12/21 00:00:23;;;;;;;14.43;7.57;;;0.20;99.90;;;;;;4998952;28;20182;-81
2021/12/21 00:02:51;;;;;;;10.90;7.53;;;0.20;99.90;;;;;;4999181;28;20177;-81
2021/12/21 00:05:20;;;;;;;11.20;7.03;;;0.20;99.90;;;;;;4999081;28;20452;-82
2021/12/21 00:07:49;;;;;;;11.70;7.10;;;0.20;99.90;;;;;;4999172;28;20441;-81
2021/12/21 00:10:16;;;;;;;15.20;7.70;;;0.20;99.90;;;;;;4998389;28;20432;-81
2021/12/21 00:16:46;;;;;;;12.67;7.60;;;0.10;99.90;;;;;;4985608;28;20813;-82
2021/12/21 00:18:40;;;;;;;12.77;8.00;;;0.10;99.90;;;;;;4995168;28;20431;-82
2021/12/21 00:24:13;;;;;;;13.37;7.57;;;0.00;99.90;;;;;;4977767;28;20445;-81
2021/12/21 00:26:39;;;;;;;11.20;7.87;;;0.00;99.90;;;;;;4996115;28;20427;-82
2021/12/21 00:29:05;;;;;;;13.83;7.67;;;0.00;99.90;;;;;;4998237;28;20512;-82
2021/12/21 00:31:34;;;;;;;16.23;8.57;;;0.00;99.90;;;;;;4998516;28;20494;-82
2021/12/21 00:34:02;;;;;;;12.67;7.47;;;0.00;99.90;;;;;;4997641;28;20504;-81
2021/12/21 00:36:30;;;;;;;14.93;7.03;;;0.00;99.90;;;;;;4997820;28;21025;-82
2021/12/21 00:38:58;;;;;;;13.20;6.90;;;0.00;99.90;;;;;;4998934;28;20893;-81
2021/12/21 00:41:27;;;;;;;9.93;6.03;;;0.00;99.90;;;;;;4999014;28;20413;-82
2021/12/21 00:43:53;;;;;;;9.87;5.60;;;0.00;99.90;;;;;;4998561;28;20963;-82
2021/12/21 00:46:19;;;;;;;13.27;6.20;;;-0.10;99.90;;;;;;4997440;28;20427;-82
2021/12/21 00:48:51;;;;;;;9.63;6.10;;;-0.10;99.90;;;;;;4997452;28;20424;-82
2021/12/21 00:51:18;;;;;;;7.20;5.27;;;-0.10;99.90;;;;;;4996701;28;20421;-81
2021/12/21 00:53:44;;;;;;;11.43;6.30;;;-0.20;99.90;;;;;;4999369;28;20467;-81
2021/12/21 00:56:09;;;;;;;9.60;5.70;;;-0.20;99.90;;;;;;4997746;28;20897;-82
2021/12/21 00:58:35;;;;;;;6.20;5.47;;;-0.20;99.90;;;;;;4996964;28;20229;-81
2021/12/21 01:01:04;;;;;;;8.57;5.97;;;-0.20;99.90;;;;;;4998639;28;20238;-80
2021/12/21 01:03:31;;;;;;;8.80;5.80;;;-0.20;99.90;;;;;;4995504;28;20180;-81
2021/12/21 01:06:11;;;;;;;8.73;5.30;;;;;;;;;;4993855;28;20464;-80
2021/12/21 01:08:54;;;;;;;10.13;6.87;;;-0.30;99.90;;;;;;4995819;28;20408;-81
2021/12/21 01:11:27;;;;;;;12.20;6.40;;;-0.30;99.90;;;;;;4993926;28;20459;-81
2021/12/21 01:21:22;;;;;;;16.13;8.23;;;-0.40;99.90;;;;;;4994966;28;20265;-81
2021/12/21 01:26:49;;;;;;;13.70;8.47;;;-0.40;99.90;;;;;;4994417;28;20880;-81
2021/12/21 01:32:13;;;;;;;11.60;7.20;;;-0.50;99.90;;;;;;4994679;28;20428;-81
2021/12/21 01:37:20;;;;;;;14.47;7.67;;;-0.50;99.90;;;;;;4994563;28;20523;-82
2021/12/21 01:40:02;;;;;;;11.90;7.00;;;-0.50;99.90;;;;;;4992837;28;20416;-81
2021/12/21 01:42:42;;;;;;;12.37;6.07;;;-0.50;99.90;;;;;;4992514;28;20408;-81
2021/12/21 01:50:37;;;;;;;9.87;5.50;;;-0.50;99.90;;;;;;4994117;28;20951;-80
2021/12/21 01:53:03;;;;;;;11.63;5.73;;;-0.40;99.90;;;;;;4992725;28;20420;-82
2021/12/21 01:55:29;;;;;;;10.63;6.13;;;-0.50;99.90;;;;;;4993668;28;20197;-81
2021/12/21 01:57:55;;;;;;;8.27;5.77;;;-0.40;99.90;;;;;;4993406;28;20456;-81
2021/12/21 02:00:21;;;;;;;8.10;5.70;;;-0.50;99.90;;;;;;4993458;28;20412;-80
2021/12/21 02:02:47;;;;;;;10.20;6.77;;;-0.50;99.90;;;;;;4993380;28;20475;-81
2021/12/21 02:05:12;;;;;;;9.50;6.77;;;-0.50;99.90;;;;;;4992234;28;20243;-81
2021/12/21 02:07:39;;;;;;;13.50;6.93;;;-0.50;99.90;;;;;;4991959;28;20189;-81
2021/12/21 02:10:06;;;;;;;12.10;7.37;;;-0.60;99.90;;;;;;4995252;28;20243;-81
2021/12/21 02:12:31;;;;;;;9.87;6.67;;;-0.50;99.90;;;;;;4996605;28;20931;-81
2021/12/21 02:14:57;;;;;;;9.70;6.97;;;-0.60;99.90;;;;;;4996743;28;20440;-81
2021/12/21 02:30:49;;;;;;;10.50;6.50;;;-0.60;99.90;;;;;;5000134;28;20408;-81
2021/12/21 02:33:15;;;;;;;9.23;5.80;;;-0.60;99.90;;;;;;4997778;28;20481;-81
2021/12/21 02:35:41;;;;;;;8.93;5.57;;;-0.60;99.90;;;;;;4999367;28;20438;-82
2021/12/21 02:38:07;;;;;;;8.27;6.10;;;-0.60;99.90;;;;;;4999743;28;20213;-80
2021/12/21 02:40:34;;;;;;;9.50;6.20;;;-0.60;99.90;;;;;;4999289;28;20420;-81
2021/12/21 02:43:00;;;;;;;13.20;6.63;;;-0.70;99.90;;;;;;4999435;28;20411;-81
2021/12/21 02:45:26;;;;;;;10.93;6.60;;;-0.70;99.90;;;;;;4999497;28;20443;-80
2021/12/21 02:47:51;;;;;;;12.17;6.63;;;-0.70;99.90;;;;;;4998015;28;20428;-82
2021/12/21 02:50:17;;;;;;;9.60;5.73;;;-0.70;99.90;;;;;;4999343;28;20417;-81
2021/12/21 02:52:43;;;;;;;9.37;5.80;;;-0.70;99.90;;;;;;4997784;28;20187;-81
2021/12/21 02:55:09;;;;;;;10.70;5.97;;;-0.80;99.90;;;;;;4997810;28;20206;-81
2021/12/21 02:57:35;;;;;;;12.20;6.77;;;-0.80;99.90;;;;;;4997233;28;20213;-81
2021/12/21 03:00:01;;;;;;;8.03;6.13;;;-0.80;99.90;;;;;;4997524;28;20435;-81
2021/12/21 03:02:28;;;;;;;9.77;6.53;;;-0.70;99.90;;;;;;4997467;28;20192;-81
2021/12/21 03:04:54;;;;;;;7.50;6.70;;;-0.80;99.90;;;;;;4996106;28;20514;-83
2021/12/21 03:08:11;;;;;;;10.30;6.80;;;-0.80;99.90;;;;;;4995761;28;20513;-84
2021/12/21 03:10:11;;;;;;;9.80;6.77;;;-0.80;99.90;;;;;;4986973;28;20649;-83
2021/12/21 03:15:16;;;;;;;15.77;7.03;;;-0.80;99.90;;;;;;4997026;28;20884;-83
2021/12/21 03:17:41;;;;;;;7.77;5.73;;;-0.90;99.90;;;;;;4995429;28;20835;-82
2021/12/21 03:20:07;;;;;;;8.83;5.93;;;-0.90;99.90;;;;;;4995072;28;20428;-82
2021/12/21 03:22:33;;;;;;;9.37;5.50;;;-0.90;99.90;;;;;;4996833;28;20660;-82
2021/12/21 03:24:58;;;;;;;8.80;6.43;;;-0.90;99.90;;;;;;4995553;28;20985;-84
2021/12/21 03:27:24;;;;;;;7.43;6.53;;;-1.00;99.90;;;;;;4995169;28;20251;-83
2021/12/21 03:29:50;;;;;;;10.00;6.23;;;-1.00;99.90;;;;;;4996996;28;20184;-83
2021/12/21 03:32:15;;;;;;;10.73;6.10;;;-1.00;99.90;;;;;;4996606;28;20637;-83
2021/12/21 03:34:41;;;;;;;7.67;5.80;;;-0.90;99.90;;;;;;4995202;28;20233;-83
2021/12/21 03:37:12;;;;;;;10.33;6.60;;;-0.90;99.90;;;;;;4995991;28;20201;-83
2021/12/21 03:39:40;;;;;;;10.03;6.93;;;-0.90;99.90;;;;;;4994679;28;20188;-82
2021/12/21 03:42:06;;;;;;;11.37;6.90;;;-1.00;99.90;;;;;;4996016;28;20419;-84
2021/12/21 03:44:31;;;;;;;10.83;6.67;;;-1.00;99.90;;;;;;4996234;28;20438;-82
2021/12/21 03:46:57;;;;;;;11.40;6.23;;;-1.00;99.90;;;;;;4996098;28;20420;-82
2021/12/21 03:52:02;;;;;;;10.73;7.20;;;-1.00;99.90;;;;;;4996253;28;20176;-83
2021/12/21 03:54:28;;;;;;;9.83;7.20;;;-1.00;99.90;;;;;;4995874;28;20440;-83
2021/12/21 03:56:54;;;;;;;11.50;6.97;;;-1.00;99.90;;;;;;4994556;28;20459;-84
2021/12/21 03:59:20;;;;;;;10.40;6.60;;;-1.00;99.90;;;;;;4994096;28;20530;-84
2021/12/21 04:01:47;;;;;;;11.07;7.43;;;-1.00;99.90;;;;;;4995857;28;20189;-83
2021/12/21 04:04:14;;;;;;;9.83;6.30;;;-1.00;99.90;;;;;;4993981;28;20444;-82
2021/12/21 04:06:39;;;;;;;13.37;7.37;;;-1.00;99.90;;;;;;4994800;28;20896;-83
2021/12/21 04:09:07;;;;;;;9.20;6.27;;;-1.00;99.90;;;;;;4995506;28;20512;-82
2021/12/21 04:11:33;;;;;;;10.17;6.17;;;-1.00;99.90;;;;;;4994031;28;20428;-82
2021/12/21 04:14:00;;;;;;;11.00;7.00;;;-1.00;99.90;;;;;;4995569;28;20432;-82
2021/12/21 04:16:26;;;;;;;10.40;6.67;;;-1.10;99.90;;;;;;4994215;28;20462;-83
2021/12/21 04:18:51;;;;;;;10.70;6.97;;;-1.10;99.90;;;;;;4995354;28;20421;-84
2021/12/21 04:21:17;;;;;;;9.80;6.97;;;-1.00;99.90;;;;;;4995144;28;20460;-83
2021/12/21 04:23:43;;;;;;;10.43;5.77;;;-1.00;99.90;;;;;;4995236;28;20178;-83
2021/12/21 04:26:11;;;;;;;9.30;6.43;;;-1.10;99.90;;;;;;4993481;28;20203;-82
2021/12/21 04:28:38;;;;;;;11.13;6.10;;;-1.10;99.90;;;;;;4993992;28;20428;-83
2021/12/21 04:31:05;;;;;;;11.90;7.50;;;-1.10;99.90;;;;;;4993675;28;20419;-82
2021/12/21 04:33:32;;;;;;;15.07;6.80;;;-1.10;99.90;;;;;;4993404;28;20436;-84
2021/12/21 04:35:58;;;;;;;10.93;7.70;;;-1.10;99.90;;;;;;4993747;28;20541;-81
2021/12/21 04:38:30;;;;;;;7.77;6.30;;;-1.10;99.90;;;;;;4993682;28;20436;-82
2021/12/21 04:41:09;;;;;;;10.00;6.40;;;-1.10;99.90;;;;;;4993252;28;20439;-82
2021/12/21 04:43:35;;;;;;;11.23;7.18;;;-1.10;99.90;;;;;;4995313;28;20768;-84
2021/12/21 04:46:00;;;;;;;9.67;6.33;;;-1.10;99.90;;;;;;4993880;28;20226;-82
2021/12/21 04:48:26;;;;;;;13.20;7.00;;;-1.20;99.90;;;;;;4994611;28;20412;-82
2021/12/21 04:50:52;;;;;;;19.50;8.70;;;-1.20;99.90;;;;;;4994563;28;20175;-82
2021/12/21 04:53:18;;;;;;;9.73;6.60;;;-1.30;99.90;;;;;;4993507;28;20418;-81
2021/12/21 04:55:44;;;;;;;14.77;8.00;;;-1.30;99.90;;;;;;4993203;28;20448;-82
2021/12/21 04:58:10;;;;;;;13.53;8.33;;;-1.30;99.90;;;;;;4993575;28;20301;-84
2021/12/21 05:00:38;;;;;;;13.50;7.17;;;-1.30;99.90;;;;;;4993278;28;20431;-82
2021/12/21 05:03:03;;;;;;;12.90;7.97;;;-1.30;99.90;;;;;;4994554;28;20417;-83
2021/12/21 05:05:29;;;;;;;13.60;9.20;;;-1.30;99.90;;;;;;4993154;28;20462;-81
2021/12/21 05:08:07;;;;;;;16.13;7.30;;;-1.30;99.90;;;;;;4993332;28;20191;-82
2021/12/21 05:10:45;;;;;;;16.80;8.70;;;-1.30;99.90;;;;;;4994048;28;20820;-83
2021/12/21 05:13:11;;;;;;;10.97;7.17;;;-1.30;99.90;;;;;;4994641;28;20828;-82
2021/12/21 05:15:37;;;;;;;12.10;7.23;;;-1.40;99.90;;;;;;4994430;28;20444;-82
2021/12/21 05:18:02;;;;;;;11.40;6.83;;;-1.30;99.90;;;;;;4993911;28;20455;-82
2021/12/21 05:20:28;;;;;;;11.43;7.27;;;-1.30;99.90;;;;;;4994285;28;20176;-83
2021/12/21 05:22:54;;;;;;;11.37;6.80;;;-1.30;99.90;;;;;;4994294;28;20649;-83
2021/12/21 05:25:20;;;;;;;10.07;6.67;;;-1.30;99.90;;;;;;4994404;28;20249;-83
2021/12/21 05:27:46;;;;;;;10.45;6.70;;;-1.30;99.90;;;;;;4994577;28;20180;-83
2021/12/21 05:30:12;;;;;;;8.50;5.83;;;-1.20;99.90;;;;;;4994215;28;20640;-83
2021/12/21 05:32:38;;;;;;;13.87;6.43;;;-1.20;99.90;;;;;;4992897;28;20207;-83
2021/12/21 05:35:04;;;;;;;15.60;7.97;;;-1.20;99.90;;;;;;4992907;28;20966;-83
2021/12/21 05:37:30;;;;;;;11.63;6.83;;;-1.20;99.90;;;;;;4992854;28;20232;-82
2021/12/21 05:40:11;;;;;;;12.87;6.30;;;-1.20;99.90;;;;;;4992801;28;20419;-83
2021/12/21 05:42:36;;;;;;;13.88;7.32;;;-1.20;99.90;;;;;;4994629;28;20229;-83
2021/12/21 05:45:06;;;;;;;11.70;7.47;;;-1.20;99.90;;;;;;4994718;28;20238;-82
2021/12/21 05:47:32;;;;;;;10.70;6.20;;;-1.20;99.90;;;;;;4997808;28;20413;-82
2021/12/21 05:49:58;;;;;;;17.90;9.67;;;-1.20;99.90;;;;;;4996557;28;20429;-82
2021/12/21 05:52:23;;;;;;;10.87;6.33;;;-1.20;99.90;;;;;;4999549;28;20440;-84
2021/12/21 05:54:49;;;;;;;14.90;8.27;;;-1.20;99.90;;;;;;5002191;28;20192;-83
2021/12/21 05:57:15;;;;;;;11.90;6.97;;;-1.20;99.90;;;;;;5002388;28;20201;-84
2021/12/21 05:59:41;;;;;;;14.57;8.20;;;-1.30;99.90;;;;;;5000497;28;20276;-81
2021/12/21 06:02:08;;;;;;;13.90;8.03;;;-1.30;99.90;;;;;;5001786;28;20416;-84
2021/12/21 06:04:33;;;;;;;13.53;7.87;;;-1.30;99.90;;;;;;5000054;28;20488;-83
2021/12/21 06:07:02;;;;;;;8.93;6.93;;;-1.40;99.90;;;;;;5001077;28;20424;-83
2021/12/21 06:09:29;;;;;;;10.85;7.28;;;-1.50;99.90;;;;;;4999164;28;20180;-81
2021/12/21 06:12:42;;;;;;;13.35;6.97;;;-1.50;99.90;;;;;;4998726;28;20184;-82
2021/12/21 06:15:12;;;;;;;10.10;6.78;;;-1.50;99.90;;;;;;5007993;28;20210;-82
2021/12/21 06:27:55;;;;;;;10.10;7.40;;;-1.60;99.90;;;;;;5018350;28;20513;-81
2021/12/21 06:30:21;;;;;;;11.03;7.83;;;-1.60;99.90;;;;;;5018735;28;20881;-82
2021/12/21 06:32:47;;;;;;;10.20;7.27;;;-1.60;99.90;;;;;;5008836;28;20432;-82
2021/12/21 06:35:13;;;;;;;12.07;7.60;;;-1.60;99.90;;;;;;5017327;28;20203;-82
2021/12/21 06:37:39;;;;;;;13.20;7.63;;;-1.60;99.90;;;;;;5017137;28;20204;-82
2021/12/21 06:40:05;;;;;;;14.13;8.20;;;-1.60;99.90;;;;;;5017331;28;20964;-82
2021/12/21 06:42:31;;;;;;;10.30;7.30;;;-1.60;99.90;;;;;;5018608;28;20179;-81
2021/12/21 06:44:59;;;;;;;12.27;7.33;;;-1.60;99.90;;;;;;5017947;28;20438;-82
2021/12/21 06:52:54;;;;;;;12.53;8.00;;;-1.60;99.90;;;;;;5017475;28;20410;-82
2021/12/21 06:55:20;;;;;;;11.17;7.90;;;-1.60;99.90;;;;;;5016208;28;20438;-80
2021/12/21 06:57:46;;;;;;;9.03;7.67;;;-1.60;99.90;;;;;;5015778;28;20551;-81
2021/12/21 07:00:13;;;;;;;8.93;7.37;;;-1.60;99.90;;;;;;5016014;28;20413;-82
2021/12/21 07:02:39;;;;;;;12.50;7.80;;;-1.70;99.90;;;;;;5015954;28;20176;-82
2021/12/21 07:05:07;;;;;;;12.63;8.60;;;-1.70;99.90;;;;;;5014418;28;20223;-83
2021/12/21 07:07:32;;;;;;;10.15;6.88;;;-1.60;99.90;;;;;;5014662;28;20423;-84
2021/12/21 07:10:04;;;;;;;10.70;7.30;;;-1.60;99.90;;;;;;5014354;28;20196;-83
2021/12/21 07:20:35;;;;;;;9.90;7.40;;;-1.60;99.90;;;;;;5016277;28;20176;-82
2021/12/21 07:23:02;;;;;;;9.70;7.17;;;-1.60;99.90;;;;;;5015104;28;20183;-81
2021/12/21 07:25:27;;;;;;;9.48;6.65;;;-1.60;99.90;;;;;;5015499;28;20445;-84
2021/12/21 07:27:56;;;;;;;10.10;6.83;;;-1.70;99.90;;;;;;5015253;28;20181;-82
2021/12/21 07:30:22;;;;;;;12.17;7.00;;;-1.70;99.90;;;;;;5013383;28;20191;-83
2021/12/21 07:32:48;;;;;;;10.52;7.13;;;-1.70;99.90;;;;;;5015572;28;20788;-81
2021/12/21 07:35:14;;;;;;;11.70;6.97;;;-1.70;99.90;;;;;;5016651;28;20282;-82
2021/12/21 07:37:40;;;;;;;10.20;6.60;;;-1.70;99.90;;;;;;5013403;28;20203;-83
2021/12/21 07:40:07;;;;;;;14.00;7.27;;;-1.70;99.90;;;;;;5013459;28;20180;-82
2021/12/21 07:42:33;;;;;;;9.93;7.82;;;-1.70;99.90;;;;;;5012875;28;20183;-81
2021/12/21 07:44:59;;;;;;;9.38;6.93;;;-1.70;99.90;;;;;;5012931;28;20234;-81
2021/12/21 07:47:24;;;;;;;10.30;7.87;;;-1.70;99.90;;;;;;5015757;28;20187;-84
2021/12/21 07:49:50;;;;;;;10.57;6.67;;;-1.70;99.90;;;;;;5016748;28;20180;-82
2021/12/21 07:52:17;;;;;;;9.30;7.87;;;-1.70;99.90;;;;;;5017133;28;20223;-84
2021/12/21 07:54:43;;;;;;;11.00;7.05;;;-1.70;99.90;;;;;;5016666;28;21061;-83
2021/12/21 07:57:09;;;;;;;9.50;7.37;;;-1.70;99.90;;;;;;5016767;28;20237;-83
2021/12/21 07:59:39;;;;;;;13.55;7.32;;;-1.70;99.90;;;;;;5016253;28;20828;-82
2021/12/21 08:02:06;;;;;;;13.63;7.97;;;-1.70;99.90;;;;;;5015066;28;20713;-82
2021/12/21 08:04:33;;;;;;;9.47;7.33;;;-1.60;99.90;;;;;;5013289;28;20361;-80
2021/12/21 08:07:06;;;;;;;14.60;7.77;;;-1.60;99.90;;;;;;5014203;28;20914;-82
2021/12/21 08:09:38;;;;;;;11.47;8.60;;;-1.60;99.90;;;;;;5014740;28;20404;-81
2021/12/21 08:12:15;;;;;;;10.07;7.68;;;-1.50;99.90;;;;;;5013835;28;20417;-81
2021/12/21 08:14:47;;;;;;;12.90;8.30;;;-1.50;99.90;;;;;;5013674;28;20297;-81
2021/12/21 08:17:13;;;;;;;13.30;7.80;;;-1.40;99.90;;;;;;5013185;28;20468;-81
2021/12/21 08:19:39;;;;;;;10.50;7.37;;;-1.30;99.90;;;;;;5012936;28;20420;-80
2021/12/21 08:22:05;;;;;;;14.93;7.40;;;-1.20;99.90;;;;;;5014606;28;20464;-82
2021/12/21 08:24:31;;;;;;;12.87;8.40;;;-1.20;99.90;;;;;;5013507;28;20548;-80
2021/12/21 08:27:03;;;;;;;10.37;7.90;;;-1.10;99.90;;;;;;5014704;28;20188;-80
2021/12/21 08:29:29;;;;;;;13.63;6.40;;;-1.00;99.90;;;;;;5012684;28;20784;-81
2021/12/21 08:31:54;;;;;;;12.50;7.43;;;-0.90;99.90;;;;;;5013042;28;20498;-82
2021/12/21 08:34:21;;;;;;;9.53;7.23;;;-0.90;99.90;;;;;;5014347;28;20446;-80
2021/12/21 08:36:47;;;;;;;9.50;7.53;;;-0.80;99.90;;;;;;5014394;28;20204;-82
2021/12/21 08:39:13;;;;;;;13.60;8.43;;;-0.80;99.90;;;;;;5012807;28;20414;-82
2021/12/21 08:41:42;;;;;;;9.90;6.90;;;-0.80;99.90;;;;;;5015995;28;20523;-81
2021/12/21 08:44:10;;;;;;;13.00;7.90;;;-0.70;99.90;;;;;;5014808;28;20430;-81
2021/12/21 08:46:37;;;;;;;12.90;7.90;;;-0.70;99.90;;;;;;5016147;28;20419;-80
2021/12/21 08:49:03;;;;;;;13.23;7.00;;;-0.60;99.90;;;;;;5014568;28;20430;-82
2021/12/21 08:51:28;;;;;;;11.43;7.47;;;-0.50;99.90;;;;;;5010064;28;20848;-80
2021/12/21 08:53:54;;;;;;;11.10;7.10;;;-0.40;99.90;;;;;;4996099;28;20426;-79
2021/12/21 08:56:20;;;;;;;13.07;7.17;;;-0.40;99.90;;;;;;5005828;28;20223;-79
2021/12/21 08:58:45;;;;;;;10.63;6.63;;;-0.40;99.90;;;;;;5018769;28;20527;-80
2021/12/21 09:01:11;;;;;;;11.50;6.93;;;-0.30;99.90;;;;;;5016808;28;20235;-80
2021/12/21 09:03:37;;;;;;;10.17;5.80;;;-0.20;99.90;;;;;;5016996;28;20188;-81
2021/12/21 09:06:02;;;;;;;10.10;6.43;;;-0.20;99.90;;;;;;5016339;28;20599;-81
2021/12/21 09:08:28;;;;;;;13.03;6.80;;;-0.10;99.90;;;;;;5031024;28;20207;-80
2021/12/21 09:10:54;;;;;;;8.37;6.20;;;0.00;99.90;;;;;;4997631;28;20428;-81
2021/12/21 09:13:19;;;;;;;13.93;8.20;;;0.00;99.90;;;;;;4994746;28;20185;-81
2021/12/21 09:15:45;;;;;;;7.47;6.30;;;0.10;99.90;;;;;;4994481;28;20235;-80
2021/12/21 09:18:12;;;;;;;12.70;7.70;;;0.10;99.90;;;;;;4996170;28;20283;-81
2021/12/21 09:20:37;;;;;;;11.53;6.60;;;0.10;99.90;;;;;;4994875;28;20431;-81
2021/12/21 09:23:04;;;;;;;10.40;6.40;;;0.20;99.90;;;;;;5000147;28;20715;-80
2021/12/21 09:25:30;;;;;;;11.60;6.30;;;0.30;99.90;;;;;;5016260;28;20200;-81
2021/12/21 09:27:57;;;;;;;8.73;5.13;;;0.30;99.90;;;;;;5013295;28;20463;-81
2021/12/21 09:30:25;;;;;;;5.67;4.50;;;0.40;99.90;;;;;;5012696;28;20759;-80
2021/12/21 09:32:51;;;;;;;8.07;5.93;;;0.40;99.90;;;;;;5014513;28;20984;-80
2021/12/21 09:35:17;;;;;;;11.00;6.20;;;0.40;99.90;;;;;;5012862;28;20538;-80
2021/12/21 09:37:44;;;;;;;7.00;4.47;;;0.50;99.90;;;;;;5014985;28;20456;-81
2021/12/21 09:40:13;;;;;;;7.70;4.83;;;0.50;99.90;;;;;;5014569;28;20408;-81
2021/12/21 09:42:39;;;;;;;8.93;5.33;;;0.60;99.90;;;;;;5014498;28;20420;-82
2021/12/21 09:45:06;;;;;;;8.77;4.40;;;0.70;99.90;;;;;;5012664;28;20500;-81
2021/12/21 09:47:32;;;;;;;7.27;4.80;;;0.70;99.90;;;;;;5013061;28;20183;-82
2021/12/21 09:49:57;;;;;;;7.00;5.10;;;0.80;99.90;;;;;;5012821;28;20486;-82
2021/12/21 09:52:29;;;;;;;7.40;5.50;;;0.80;99.90;;;;;;5015889;28;20423;-80
2021/12/21 09:54:55;;;;;;;8.10;5.00;;;0.90;99.90;;;;;;5012664;28;20235;-82
2021/12/21 09:57:21;;;;;;;8.80;5.23;;;0.90;99.90;;;;;;5030862;28;20464;-81
2021/12/21 09:59:51;;;;;;;9.93;4.83;;;1.00;99.90;;;;;;5013411;28;20424;-82
2021/12/21 10:02:22;;;;;;;8.40;4.90;;;1.00;99.90;;;;;;5015559;28;20416;-81
2021/12/21 10:04:50;;;;;;;7.90;5.00;;;1.10;99.90;;;;;;5014286;28;20460;-83
2021/12/21 10:07:18;;;;;;;7.77;4.77;;;1.10;99.90;;;;;;5013839;28;20435;-83
2021/12/21 10:09:45;;;;;;;7.23;4.37;;;1.10;99.90;;;;;;5015329;28;20420;-82
2021/12/21 10:12:27;;;;;;;6.80;4.60;;;1.20;99.90;;;;;;5014298;28;20502;-83
2021/12/21 10:15:06;;;;;;;7.47;4.73;;;1.10;99.90;;;;;;5011451;28;20459;-84
2021/12/21 10:17:33;;;;;;;5.83;4.40;;;1.20;99.90;;;;;;5012644;28;20456;-84
2021/12/21 10:20:08;;;;;;;8.50;5.20;;;1.20;99.90;;;;;;5011257;28;20412;-82
2021/12/21 10:22:35;;;;;;;5.63;3.87;;;1.30;99.90;;;;;;5012417;28;20469;-82
2021/12/21 10:25:01;;;;;;;7.30;4.60;;;1.30;99.90;;;;;;5012445;28;20519;-82
2021/12/21 10:27:27;;;;;;;6.93;4.43;;;1.50;99.90;;;;;;5011115;28;20515;-82
2021/12/21 10:30:00;;;;;;;7.03;4.53;;;1.60;99.90;;;;;;5011148;28;20782;-82
2021/12/21 10:32:27;;;;;;;5.07;4.00;;;1.70;99.90;;;;;;5016063;28;20187;-82
2021/12/21 10:35:05;;;;;;;6.67;4.37;;;1.80;99.90;;;;;;5016027;28;20948;-83
2021/12/21 10:37:33;;;;;;;5.83;4.33;;;1.90;99.90;;;;;;5014461;28;20850;-83
2021/12/21 10:40:07;;;;;;;6.53;4.63;;;2.00;99.90;;;;;;5015512;28;20501;-82
2021/12/21 10:42:57;;;;;;;12.07;4.50;;;2.10;99.90;;;;;;5015800;28;20413;-83
2021/12/21 10:45:33;;;;;;;8.77;3.47;;;2.10;99.90;;;;;;5014330;28;20477;-82
2021/12/21 10:48:00;;;;;;;9.47;4.10;;;2.10;99.90;;;;;;5015377;28;20930;-83
2021/12/21 10:50:29;;;;;;;5.57;3.13;;;2.20;99.90;;;;;;5014077;28;20422;-82
2021/12/21 10:52:59;;;;;;;5.37;2.90;;;2.40;99.90;;;;;;5014034;28;20434;-82
2021/12/21 10:55:30;;;;;;;4.03;2.90;;;2.50;99.90;;;;;;5013972;28;20454;-82
2021/12/21 10:58:17;;;;;;;9.37;3.97;;;2.70;99.90;;;;;;5014993;28;20485;-83
2021/12/21 11:01:13;;;;;;;7.13;3.30;;;2.70;99.90;;;;;;5013886;28;20423;-82
2021/12/21 11:03:49;;;;;;;7.93;3.60;;;2.80;99.90;;;;;;5013793;28;20438;-83
2021/12/21 11:06:18;;;;;;;8.57;3.47;;;3.00;99.90;;;;;;5009419;28;20453;-83
2021/12/21 11:08:48;;;;;;;4.43;3.30;;;3.10;99.90;;;;;;4995203;28;20443;-82
2021/12/21 11:11:34;;;;;;;4.40;2.93;;;4.00;99.90;;;;;;5004348;28;20428;-81
2021/12/21 11:14:00;;;;;;;6.73;3.40;;;5.80;99.90;;;;;;5030406;28;20788;-83
2021/12/21 11:16:46;;;;;;;5.97;3.07;;;6.80;99.90;;;;;;5015316;28;20438;-83
2021/12/21 11:19:13;;;;;;;5.37;3.27;;;7.80;99.90;;;;;;5014898;28;20439;-83
2021/12/21 11:21:40;;;;;;;6.60;2.93;;;8.30;99.90;;;;;;5015183;28;20494;-83
2021/12/21 11:24:09;;;;;;;4.60;2.97;;;8.20;99.90;;;;;;5014478;28;20908;-84
2021/12/21 11:26:35;;;;;;;6.60;4.57;;;8.50;99.90;;;;;;5030028;28;20416;-84
2021/12/21 11:29:05;;;;;;;6.77;3.70;;;9.10;99.90;;;;;;5014659;28;20769;-83
2021/12/21 11:31:35;;;;;;;4.97;3.47;;;10.30;99.90;;;;;;5014671;28;20427;-85
2021/12/21 11:34:01;;;;;;;5.47;3.10;;;11.50;99.90;;;;;;5014749;28;20907;-84
2021/12/21 11:39:13;;;;;;;5.40;3.03;;;14.30;94.40;;;;;;5014512;28;20410;-84
2021/12/21 11:41:41;;;;;;;4.50;3.00;;;15.30;87.50;;;;;;5029565;28;20473;-82
2021/12/21 11:44:13;;;;;;;5.20;3.50;;;16.20;76.10;;;;;;5029949;28;20423;-82
2021/12/21 11:46:59;;;;;;;5.30;3.40;;;17.50;68.10;;;;;;5012596;28;20431;-81
2021/12/21 11:49:51;;;;;;;7.37;3.93;;;19.10;60.00;;;;;;5014265;28;20878;-81
2021/12/21 11:52:20;;;;;;;5.30;3.53;;;19.80;55.30;;;;;;5014081;28;20408;-81
2021/12/21 11:54:50;;;;;;;9.27;3.37;;;20.50;53.70;;;;;;5014379;28;20562;-80
2021/12/21 11:57:18;;;;;;;3.93;2.87;;;21.30;51.20;;;;;;5027337;28;20471;-81
2021/12/21 11:59:48;;;;;;;4.80;2.97;;;21.70;47.00;;;;;;5012034;28;20570;-83
2021/12/21 12:02:30;;;;;;;4.70;2.60;;;22.00;43.80;;;;;;5013931;28;20396;-80
2021/12/21 12:04:57;;;;;;;3.90;2.83;;;20.70;44.00;;;;;;5014054;28;20563;-83
2021/12/21 12:07:26;;;;;;;6.53;3.60;;;20.60;43.90;;;;;;5012286;28;20438;-82
2021/12/21 12:10:11;;;;;;;5.60;3.07;;;20.20;44.10;;;;;;4992594;28;20839;-80
2021/12/21 12:12:37;;;;;;;6.67;3.33;;;19.70;44.40;;;;;;4994563;28;20401;-80
2021/12/21 12:15:05;;;;;;;4.60;2.63;;;19.30;44.00;;;;;;5006262;28;20462;-81
2021/12/21 12:17:31;;;;;;;5.53;3.30;;;19.80;44.60;;;;;;5021186;28;20472;-81
2021/12/21 12:20:05;;;;;;;4.70;2.50;;;20.40;44.60;;;;;;5035104;28;20442;-84
2021/12/21 12:22:43;;;;;;;4.10;2.90;;;20.00;43.80;;;;;;5020005;28;20495;-84
2021/12/21 12:25:21;;;;;;;4.57;2.80;;;19.70;44.00;;;;;;5029647;28;20451;-83
2021/12/21 12:27:50;;;;;;;6.80;3.40;;;20.10;43.40;;;;;;5011345;28;20425;-84
2021/12/21 12:30:19;;;;;;;4.93;2.80;;;20.00;43.50;;;;;;5006359;28;20417;-81
2021/12/21 12:32:52;;;;;;;5.07;3.17;;;20.00;43.40;;;;;;5016517;28;20420;-82
2021/12/21 12:35:22;;;;;;;4.63;2.97;;;20.40;44.00;;;;;;5017812;28;20487;-84
2021/12/21 12:38:01;;;;;;;9.33;3.70;;;20.20;43.50;;;;;;5018735;28;20503;-83
2021/12/21 12:40:30;;;;;;;7.90;3.40;;;19.40;43.60;;;;;;5018525;28;20418;-83
2021/12/21 12:43:09;;;;;;;4.77;2.87;;;17.60;43.90;;;;;;5016852;28;20468;-83
2021/12/21 12:45:36;;;;;;;7.23;3.20;;;15.80;46.00;;;;;;5013296;28;20438;-82
2021/12/21 12:48:02;;;;;;;4.10;2.80;;;14.60;47.60;;;;;;5012087;28;20496;-82
2021/12/21 12:50:30;;;;;;;4.63;2.47;;;13.70;49.70;;;;;;5013089;28;20495;-82
2021/12/21 12:53:00;;;;;;;6.67;3.47;;;14.50;49.50;;;;;;5011610;28;20423;-82
2021/12/21 12:55:36;;;;;;;5.03;2.77;;;15.70;48.50;;;;;;5011855;28;20473;-82
2021/12/21 12:58:11;;;;;;;6.97;2.97;;;16.50;47.50;;;;;;5011691;28;20494;-82
2021/12/21 13:00:36;;;;;;;9.30;4.23;;;17.00;47.80;;;;;;5011596;28;20596;-82
2021/12/21 13:03:08;;;;;;;7.27;3.20;;;16.80;47.30;;;;;;5012816;28;20420;-82
2021/12/21 13:05:43;;;;;;;4.73;3.63;;;16.50;47.80;;;;;;5011420;28;20592;-82
2021/12/21 13:08:22;;;;;;;6.50;3.50;;;15.80;48.40;;;;;;5015689;28;20479;-83
2021/12/21 13:10:53;;;;;;;4.93;2.83;;;15.10;49.40;;;;;;5017890;28;20416;-83
2021/12/21 13:13:20;;;;;;;5.87;3.10;;;15.30;50.30;;;;;;5015593;28;20412;-82
2021/12/21 13:15:48;;;;;;;6.37;3.40;;;15.70;49.80;;;;;;5017239;28;20462;-83
2021/12/21 13:18:19;;;;;;;4.73;3.10;;;15.40;48.90;;;;;;5016886;28;20607;-83
2021/12/21 13:20:48;;;;;;;4.90;3.07;;;14.90;50.00;;;;;;5015138;28;20439;-83
2021/12/21 13:23:29;;;;;;;5.67;2.87;;;14.10;51.00;;;;;;5016722;28;20414;-82
2021/12/21 13:25:57;;;;;;;6.07;3.57;;;13.60;52.80;;;;;;5016992;28;20503;-83
2021/12/21 13:28:23;;;;;;;5.67;2.90;;;13.70;52.80;;;;;;5012753;28;20451;-82
2021/12/21 13:30:51;;;;;;;3.80;3.00;;;13.30;53.10;;;;;;5012289;28;20434;-81
2021/12/21 13:33:23;;;;;;;8.40;3.03;;;13.10;52.70;;;;;;5011546;28;20428;-81
2021/12/21 13:35:51;;;;;;;5.73;3.43;;;12.50;53.90;;;;;;5010353;28;20458;-81
2021/12/21 13:38:19;;;;;;;5.50;2.93;;;11.90;55.30;;;;;;5027465;28;20510;-82
2021/12/21 13:40:57;;;;;;;7.10;2.90;;;11.20;56.20;;;;;;5012192;28;20780;-82
2021/12/21 13:43:22;;;;;;;7.00;4.60;;;10.60;59.70;;;;;;5011925;28;20487;-81
2021/12/21 13:45:57;;;;;;;8.23;3.40;;;10.00;67.10;;;;;;5015248;28;20988;-82
2021/12/21 13:48:23;;;;;;;8.50;3.93;;;9.30;75.80;;;;;;5016368;28;20624;-82
2021/12/21 13:50:49;;;;;;;5.83;4.50;;;8.80;83.70;;;;;;5012816;28;20470;-82
2021/12/21 13:53:19;;;;;;;5.73;3.80;;;8.40;91.70;;;;;;5014291;28;20420;-83
2021/12/21 13:55:49;;;;;;;8.37;3.50;;;8.20;93.70;;;;;;5012942;28;20215;-82
2021/12/21 13:58:14;;;;;;;7.90;3.83;;;7.80;98.80;;;;;;5008568;28;20468;-82
2021/12/21 14:00:44;;;;;;;5.37;3.03;;;7.60;99.90;;;;;;5001042;28;20886;-83
2021/12/21 14:05:55;;;;;;;8.00;3.27;;;7.30;99.90;;;;;;4995965;28;20997;-83
2021/12/21 14:08:21;;;;;;;6.03;3.40;;;7.10;99.90;;;;;;4998693;28;20923;-83